sensor_id;sensor_type;location;lat;lon;timestamp;P1;durP1;ratioP1;P2;durP2;ratioP2
46653;SDS011;38960;51.074;17.004;2023-03-01T00:01:52;51.07;;;28.13;;
46653;SDS011;38960;51.074;17.004;2023-03-01T00:04:17;53.63;;;27.60;;
46653;SDS011;38960;51.074;17.004;2023-03-01T00:06:43;52.13;;;28.23;;
46653;SDS011;38960;51.074;17.004;2023-03-01T00:09:11;47.93;;;26.03;;
46653;SDS011;38960;51.074;17.004;2023-03-01T00:11:37;48.13;;;26.20;;
46653;SDS011;38960;51.074;17.004;2023-03-01T00:14:03;45.10;;;25.00;;
46653;SDS011;38960;51.074;17.004;2023-03-01T00:16:33;46.40;;;26.67;;
46653;SDS011;38960;51.074;17.004;2023-03-01T00:19:00;50.73;;;27.43;;
46653;SDS011;38960;51.074;17.004;2023-03-01T00:21:26;45.83;;;26.60;;
46653;SDS011;38960;51.074;17.004;2023-03-01T00:23:52;54.60;;;26.70;;
46653;SDS011;38960;51.074;17.004;2023-03-01T00:26:19;44.53;;;26.20;;
46653;SDS011;38960;51.074;17.004;2023-03-01T00:28:45;48.53;;;26.97;;
46653;SDS011;38960;51.074;17.004;2023-03-01T00:31:13;48.23;;;26.73;;
46653;SDS011;38960;51.074;17.004;2023-03-01T00:33:50;46.47;;;27.83;;
46653;SDS011;38960;51.074;17.004;2023-03-01T00:36:17;49.90;;;27.30;;
46653;SDS011;38960;51.074;17.004;2023-03-01T00:38:44;48.97;;;28.63;;
46653;SDS011;38960;51.074;17.004;2023-03-01T00:41:11;58.37;;;30.23;;
46653;SDS011;38960;51.074;17.004;2023-03-01T00:43:39;55.53;;;31.67;;
46653;SDS011;38960;51.074;17.004;2023-03-01T00:46:05;53.40;;;31.67;;
46653;SDS011;38960;51.074;17.004;2023-03-01T00:48:42;50.87;;;29.87;;
46653;SDS011;38960;51.074;17.004;2023-03-01T00:51:11;50.80;;;28.70;;
46653;SDS011;38960;51.074;17.004;2023-03-01T00:53:38;56.57;;;29.83;;
46653;SDS011;38960;51.074;17.004;2023-03-01T00:56:05;54.13;;;30.77;;
46653;SDS011;38960;51.074;17.004;2023-03-01T00:58:32;61.20;;;33.17;;
46653;SDS011;38960;51.074;17.004;2023-03-01T01:00:57;62.07;;;33.93;;
46653;SDS011;38960;51.074;17.004;2023-03-01T01:03:23;60.40;;;32.93;;
46653;SDS011;38960;51.074;17.004;2023-03-01T01:05:53;63.43;;;32.57;;
46653;SDS011;38960;51.074;17.004;2023-03-01T01:08:19;61.60;;;32.73;;
46653;SDS011;38960;51.074;17.004;2023-03-01T01:10:46;65.27;;;33.70;;
46653;SDS011;38960;51.074;17.004;2023-03-01T01:13:11;66.97;;;35.40;;
46653;SDS011;38960;51.074;17.004;2023-03-01T01:15:37;72.30;;;36.60;;
46653;SDS011;38960;51.074;17.004;2023-03-01T01:18:03;73.03;;;35.67;;
46653;SDS011;38960;51.074;17.004;2023-03-01T01:20:28;69.73;;;36.77;;
46653;SDS011;38960;51.074;17.004;2023-03-01T01:22:54;67.70;;;34.50;;
46653;SDS011;38960;51.074;17.004;2023-03-01T01:25:20;66.40;;;34.70;;
46653;SDS011;38960;51.074;17.004;2023-03-01T01:27:46;60.30;;;33.90;;
46653;SDS011;38960;51.074;17.004;2023-03-01T01:30:11;67.33;;;34.57;;
46653;SDS011;38960;51.074;17.004;2023-03-01T01:32:38;59.77;;;32.53;;
46653;SDS011;38960;51.074;17.004;2023-03-01T01:35:04;59.30;;;32.87;;
46653;SDS011;38960;51.074;17.004;2023-03-01T01:37:29;54.37;;;31.67;;
46653;SDS011;38960;51.074;17.004;2023-03-01T01:39:57;63.53;;;33.37;;
46653;SDS011;38960;51.074;17.004;2023-03-01T01:42:24;58.27;;;32.23;;
46653;SDS011;38960;51.074;17.004;2023-03-01T01:45:18;61.97;;;33.57;;
46653;SDS011;38960;51.074;17.004;2023-03-01T01:47:57;58.73;;;32.53;;
46653;SDS011;38960;51.074;17.004;2023-03-01T01:50:26;62.20;;;33.10;;
46653;SDS011;38960;51.074;17.004;2023-03-01T01:52:52;62.37;;;34.63;;
46653;SDS011;38960;51.074;17.004;2023-03-01T01:55:22;58.90;;;32.47;;
46653;SDS011;38960;51.074;17.004;2023-03-01T01:57:53;64.07;;;32.03;;
46653;SDS011;38960;51.074;17.004;2023-03-01T02:00:22;63.20;;;34.08;;
46653;SDS011;38960;51.074;17.004;2023-03-01T02:02:50;58.30;;;32.77;;
46653;SDS011;38960;51.074;17.004;2023-03-01T02:05:44;67.97;;;33.90;;
46653;SDS011;38960;51.074;17.004;2023-03-01T02:08:08;61.17;;;32.33;;
46653;SDS011;38960;51.074;17.004;2023-03-01T02:10:36;67.27;;;34.57;;
46653;SDS011;38960;51.074;17.004;2023-03-01T02:13:03;63.23;;;33.27;;
46653;SDS011;38960;51.074;17.004;2023-03-01T02:15:31;67.47;;;33.03;;
46653;SDS011;38960;51.074;17.004;2023-03-01T02:17:58;55.40;;;32.67;;
46653;SDS011;38960;51.074;17.004;2023-03-01T02:23:17;68.07;;;32.87;;
46653;SDS011;38960;51.074;17.004;2023-03-01T02:25:47;66.87;;;35.27;;
46653;SDS011;38960;51.074;17.004;2023-03-01T02:28:20;56.67;;;32.47;;
46653;SDS011;38960;51.074;17.004;2023-03-01T02:30:47;56.37;;;32.87;;
46653;SDS011;38960;51.074;17.004;2023-03-01T02:33:32;59.67;;;33.00;;
46653;SDS011;38960;51.074;17.004;2023-03-01T02:36:08;62.07;;;31.30;;
46653;SDS011;38960;51.074;17.004;2023-03-01T02:38:42;56.87;;;31.73;;
46653;SDS011;38960;51.074;17.004;2023-03-01T02:41:08;64.90;;;32.40;;
46653;SDS011;38960;51.074;17.004;2023-03-01T02:43:34;61.70;;;33.93;;
46653;SDS011;38960;51.074;17.004;2023-03-01T02:46:05;64.77;;;35.90;;
46653;SDS011;38960;51.074;17.004;2023-03-01T02:48:45;65.33;;;32.07;;
46653;SDS011;38960;51.074;17.004;2023-03-01T02:53:59;66.00;;;35.30;;
46653;SDS011;38960;51.074;17.004;2023-03-01T02:56:45;71.90;;;36.73;;
46653;SDS011;38960;51.074;17.004;2023-03-01T02:59:19;64.17;;;36.00;;
46653;SDS011;38960;51.074;17.004;2023-03-01T03:01:47;68.93;;;37.28;;
46653;SDS011;38960;51.074;17.004;2023-03-01T03:04:13;64.97;;;36.27;;
46653;SDS011;38960;51.074;17.004;2023-03-01T03:06:45;71.07;;;36.80;;
46653;SDS011;38960;51.074;17.004;2023-03-01T03:09:12;66.03;;;36.13;;
46653;SDS011;38960;51.074;17.004;2023-03-01T03:11:37;72.43;;;36.60;;
46653;SDS011;38960;51.074;17.004;2023-03-01T03:14:04;82.17;;;40.27;;
46653;SDS011;38960;51.074;17.004;2023-03-01T03:16:31;76.67;;;42.17;;
46653;SDS011;38960;51.074;17.004;2023-03-01T03:18:56;69.63;;;39.10;;
46653;SDS011;38960;51.074;17.004;2023-03-01T03:21:33;72.80;;;38.17;;
46653;SDS011;38960;51.074;17.004;2023-03-01T03:23:59;75.13;;;38.53;;
46653;SDS011;38960;51.074;17.004;2023-03-01T03:26:25;66.73;;;37.33;;
46653;SDS011;38960;51.074;17.004;2023-03-01T03:28:50;65.00;;;37.10;;
46653;SDS011;38960;51.074;17.004;2023-03-01T03:31:16;70.37;;;36.73;;
46653;SDS011;38960;51.074;17.004;2023-03-01T03:33:41;67.03;;;35.63;;
46653;SDS011;38960;51.074;17.004;2023-03-01T03:36:07;70.57;;;38.40;;
46653;SDS011;38960;51.074;17.004;2023-03-01T03:38:38;76.00;;;40.03;;
46653;SDS011;38960;51.074;17.004;2023-03-01T03:41:05;76.60;;;41.73;;
46653;SDS011;38960;51.074;17.004;2023-03-01T03:43:33;83.93;;;43.17;;
46653;SDS011;38960;51.074;17.004;2023-03-01T03:46:00;76.13;;;40.77;;
46653;SDS011;38960;51.074;17.004;2023-03-01T03:48:31;71.73;;;38.77;;
46653;SDS011;38960;51.074;17.004;2023-03-01T03:50:59;72.77;;;37.73;;
46653;SDS011;38960;51.074;17.004;2023-03-01T03:53:25;74.80;;;39.17;;
46653;SDS011;38960;51.074;17.004;2023-03-01T03:55:52;62.67;;;36.43;;
46653;SDS011;38960;51.074;17.004;2023-03-01T03:58:19;78.97;;;39.73;;
46653;SDS011;38960;51.074;17.004;2023-03-01T04:00:47;74.73;;;39.67;;
46653;SDS011;38960;51.074;17.004;2023-03-01T04:03:15;78.13;;;41.80;;
46653;SDS011;38960;51.074;17.004;2023-03-01T04:05:41;75.73;;;39.90;;
46653;SDS011;38960;51.074;17.004;2023-03-01T04:08:08;77.27;;;40.80;;
46653;SDS011;38960;51.074;17.004;2023-03-01T04:10:35;80.60;;;41.10;;
46653;SDS011;38960;51.074;17.004;2023-03-01T04:13:02;76.43;;;39.90;;
46653;SDS011;38960;51.074;17.004;2023-03-01T04:15:30;66.70;;;37.80;;
46653;SDS011;38960;51.074;17.004;2023-03-01T04:17:56;68.70;;;37.63;;
46653;SDS011;38960;51.074;17.004;2023-03-01T04:20:22;70.77;;;38.10;;
46653;SDS011;38960;51.074;17.004;2023-03-01T04:22:50;68.93;;;37.87;;
46653;SDS011;38960;51.074;17.004;2023-03-01T04:25:57;71.73;;;36.93;;
46653;SDS011;38960;51.074;17.004;2023-03-01T04:28:31;72.17;;;38.93;;
46653;SDS011;38960;51.074;17.004;2023-03-01T04:31:01;69.53;;;37.63;;
46653;SDS011;38960;51.074;17.004;2023-03-01T04:33:47;75.33;;;39.63;;
46653;SDS011;38960;51.074;17.004;2023-03-01T04:36:16;70.37;;;39.37;;
46653;SDS011;38960;51.074;17.004;2023-03-01T04:38:42;75.50;;;38.93;;
46653;SDS011;38960;51.074;17.004;2023-03-01T04:41:12;77.83;;;40.70;;
46653;SDS011;38960;51.074;17.004;2023-03-01T04:43:39;73.30;;;39.63;;
46653;SDS011;38960;51.074;17.004;2023-03-01T04:46:09;72.13;;;37.37;;
46653;SDS011;38960;51.074;17.004;2023-03-01T04:48:37;74.43;;;39.05;;
46653;SDS011;38960;51.074;17.004;2023-03-01T04:51:04;72.70;;;40.33;;
46653;SDS011;38960;51.074;17.004;2023-03-01T04:53:30;79.50;;;42.10;;
46653;SDS011;38960;51.074;17.004;2023-03-01T04:55:57;83.20;;;42.63;;
46653;SDS011;38960;51.074;17.004;2023-03-01T04:58:23;80.40;;;41.90;;
46653;SDS011;38960;51.074;17.004;2023-03-01T05:00:49;77.90;;;39.43;;
46653;SDS011;38960;51.074;17.004;2023-03-01T05:03:15;72.00;;;38.87;;
46653;SDS011;38960;51.074;17.004;2023-03-01T05:05:43;74.80;;;39.13;;
46653;SDS011;38960;51.074;17.004;2023-03-01T05:08:10;74.43;;;40.17;;
46653;SDS011;38960;51.074;17.004;2023-03-01T05:10:45;75.43;;;40.67;;
46653;SDS011;38960;51.074;17.004;2023-03-01T05:13:13;76.20;;;41.10;;
46653;SDS011;38960;51.074;17.004;2023-03-01T05:15:46;78.97;;;40.57;;
46653;SDS011;38960;51.074;17.004;2023-03-01T05:18:25;71.40;;;37.80;;
46653;SDS011;38960;51.074;17.004;2023-03-01T05:20:54;72.17;;;39.57;;
46653;SDS011;38960;51.074;17.004;2023-03-01T05:23:21;77.17;;;41.20;;
46653;SDS011;38960;51.074;17.004;2023-03-01T05:25:47;78.47;;;42.20;;
46653;SDS011;38960;51.074;17.004;2023-03-01T05:28:14;79.17;;;43.03;;
46653;SDS011;38960;51.074;17.004;2023-03-01T05:30:41;81.13;;;40.60;;
46653;SDS011;38960;51.074;17.004;2023-03-01T05:33:07;82.37;;;42.60;;
46653;SDS011;38960;51.074;17.004;2023-03-01T05:35:43;80.00;;;41.57;;
46653;SDS011;38960;51.074;17.004;2023-03-01T05:38:10;83.57;;;42.30;;
46653;SDS011;38960;51.074;17.004;2023-03-01T05:40:38;77.33;;;41.33;;
46653;SDS011;38960;51.074;17.004;2023-03-01T05:43:04;78.73;;;42.10;;
46653;SDS011;38960;51.074;17.004;2023-03-01T05:45:30;81.03;;;41.07;;
46653;SDS011;38960;51.074;17.004;2023-03-01T05:47:57;74.23;;;40.90;;
46653;SDS011;38960;51.074;17.004;2023-03-01T05:50:31;75.87;;;40.27;;
46653;SDS011;38960;51.074;17.004;2023-03-01T05:53:31;72.50;;;38.03;;
46653;SDS011;38960;51.074;17.004;2023-03-01T05:55:51;75.77;;;39.27;;
46653;SDS011;38960;51.074;17.004;2023-03-01T05:58:18;71.13;;;37.43;;
46653;SDS011;38960;51.074;17.004;2023-03-01T06:00:45;75.20;;;39.20;;
46653;SDS011;38960;51.074;17.004;2023-03-01T06:03:12;69.60;;;37.13;;
46653;SDS011;38960;51.074;17.004;2023-03-01T06:05:39;68.40;;;37.40;;
46653;SDS011;38960;51.074;17.004;2023-03-01T06:08:05;76.00;;;38.93;;
46653;SDS011;38960;51.074;17.004;2023-03-01T06:10:31;73.27;;;38.17;;
46653;SDS011;38960;51.074;17.004;2023-03-01T06:12:56;72.00;;;38.57;;
46653;SDS011;38960;51.074;17.004;2023-03-01T06:15:23;74.50;;;38.57;;
46653;SDS011;38960;51.074;17.004;2023-03-01T06:17:49;73.50;;;40.43;;
46653;SDS011;38960;51.074;17.004;2023-03-01T06:20:19;76.33;;;39.33;;
46653;SDS011;38960;51.074;17.004;2023-03-01T06:22:46;68.27;;;37.20;;
46653;SDS011;38960;51.074;17.004;2023-03-01T06:25:13;69.67;;;38.43;;
46653;SDS011;38960;51.074;17.004;2023-03-01T06:27:40;72.77;;;38.40;;
46653;SDS011;38960;51.074;17.004;2023-03-01T06:30:07;67.77;;;39.27;;
46653;SDS011;38960;51.074;17.004;2023-03-01T06:32:35;69.97;;;37.67;;
46653;SDS011;38960;51.074;17.004;2023-03-01T06:35:02;70.90;;;38.13;;
46653;SDS011;38960;51.074;17.004;2023-03-01T06:37:29;78.23;;;38.63;;
46653;SDS011;38960;51.074;17.004;2023-03-01T06:39:54;73.67;;;38.80;;
46653;SDS011;38960;51.074;17.004;2023-03-01T06:42:20;72.07;;;40.03;;
46653;SDS011;38960;51.074;17.004;2023-03-01T06:44:45;72.57;;;39.13;;
46653;SDS011;38960;51.074;17.004;2023-03-01T06:47:11;68.43;;;38.60;;
46653;SDS011;38960;51.074;17.004;2023-03-01T06:49:37;73.13;;;39.40;;
46653;SDS011;38960;51.074;17.004;2023-03-01T06:52:02;69.30;;;37.47;;
46653;SDS011;38960;51.074;17.004;2023-03-01T06:54:28;64.30;;;35.07;;
46653;SDS011;38960;51.074;17.004;2023-03-01T06:56:53;69.27;;;37.03;;
46653;SDS011;38960;51.074;17.004;2023-03-01T06:59:19;63.90;;;35.87;;
46653;SDS011;38960;51.074;17.004;2023-03-01T07:01:45;66.73;;;36.10;;
46653;SDS011;38960;51.074;17.004;2023-03-01T07:04:11;64.07;;;37.23;;
46653;SDS011;38960;51.074;17.004;2023-03-01T07:06:36;69.93;;;38.33;;
46653;SDS011;38960;51.074;17.004;2023-03-01T07:09:02;68.33;;;38.67;;
46653;SDS011;38960;51.074;17.004;2023-03-01T07:11:28;77.60;;;40.83;;
46653;SDS011;38960;51.074;17.004;2023-03-01T07:13:53;77.17;;;42.23;;
46653;SDS011;38960;51.074;17.004;2023-03-01T07:16:20;68.93;;;39.50;;
46653;SDS011;38960;51.074;17.004;2023-03-01T07:18:45;76.60;;;41.70;;
46653;SDS011;38960;51.074;17.004;2023-03-01T07:21:12;73.17;;;40.17;;
46653;SDS011;38960;51.074;17.004;2023-03-01T07:23:38;76.70;;;40.70;;
46653;SDS011;38960;51.074;17.004;2023-03-01T07:26:04;75.17;;;40.37;;
46653;SDS011;38960;51.074;17.004;2023-03-01T07:28:29;72.90;;;41.30;;
46653;SDS011;38960;51.074;17.004;2023-03-01T07:31:00;65.23;;;37.37;;
46653;SDS011;38960;51.074;17.004;2023-03-01T07:33:27;72.05;;;40.55;;
46653;SDS011;38960;51.074;17.004;2023-03-01T07:35:56;66.87;;;39.40;;
46653;SDS011;38960;51.074;17.004;2023-03-01T07:38:23;68.73;;;37.23;;
46653;SDS011;38960;51.074;17.004;2023-03-01T07:40:48;63.87;;;38.17;;
46653;SDS011;38960;51.074;17.004;2023-03-01T07:43:14;67.57;;;40.30;;
46653;SDS011;38960;51.074;17.004;2023-03-01T07:45:39;69.70;;;40.93;;
46653;SDS011;38960;51.074;17.004;2023-03-01T07:48:05;68.60;;;41.20;;
46653;SDS011;38960;51.074;17.004;2023-03-01T07:50:30;77.20;;;40.27;;
46653;SDS011;38960;51.074;17.004;2023-03-01T07:52:56;70.17;;;38.90;;
46653;SDS011;38960;51.074;17.004;2023-03-01T07:55:21;64.27;;;36.07;;
46653;SDS011;38960;51.074;17.004;2023-03-01T07:57:47;57.97;;;36.17;;
46653;SDS011;38960;51.074;17.004;2023-03-01T08:00:13;62.30;;;34.80;;
46653;SDS011;38960;51.074;17.004;2023-03-01T08:02:38;60.13;;;33.70;;
46653;SDS011;38960;51.074;17.004;2023-03-01T08:05:06;60.70;;;34.60;;
46653;SDS011;38960;51.074;17.004;2023-03-01T08:07:33;55.77;;;32.33;;
46653;SDS011;38960;51.074;17.004;2023-03-01T08:09:58;49.03;;;29.35;;
46653;SDS011;38960;51.074;17.004;2023-03-01T08:12:24;49.03;;;29.95;;
46653;SDS011;38960;51.074;17.004;2023-03-01T08:14:49;48.15;;;30.23;;
46653;SDS011;38960;51.074;17.004;2023-03-01T08:17:15;52.25;;;28.95;;
46653;SDS011;38960;51.074;17.004;2023-03-01T08:19:40;49.25;;;27.63;;
46653;SDS011;38960;51.074;17.004;2023-03-01T08:22:07;38.20;;;24.30;;
46653;SDS011;38960;51.074;17.004;2023-03-01T08:24:32;41.42;;;25.25;;
46653;SDS011;38960;51.074;17.004;2023-03-01T08:26:58;46.17;;;28.60;;
46653;SDS011;38960;51.074;17.004;2023-03-01T08:29:23;50.92;;;27.80;;
46653;SDS011;38960;51.074;17.004;2023-03-01T08:31:49;45.95;;;27.30;;
46653;SDS011;38960;51.074;17.004;2023-03-01T08:34:16;42.83;;;26.60;;
46653;SDS011;38960;51.074;17.004;2023-03-01T08:36:43;56.35;;;26.77;;
46653;SDS011;38960;51.074;17.004;2023-03-01T08:39:11;50.38;;;25.15;;
46653;SDS011;38960;51.074;17.004;2023-03-01T08:41:38;42.63;;;24.10;;
46653;SDS011;38960;51.074;17.004;2023-03-01T08:44:04;39.90;;;25.83;;
46653;SDS011;38960;51.074;17.004;2023-03-01T08:46:32;44.05;;;23.90;;
46653;SDS011;38960;51.074;17.004;2023-03-01T08:49:05;37.55;;;24.55;;
46653;SDS011;38960;51.074;17.004;2023-03-01T08:51:36;44.63;;;23.05;;
46653;SDS011;38960;51.074;17.004;2023-03-01T08:54:03;39.55;;;23.48;;
46653;SDS011;38960;51.074;17.004;2023-03-01T08:56:29;30.10;;;18.02;;
46653;SDS011;38960;51.074;17.004;2023-03-01T08:58:55;32.17;;;17.35;;
46653;SDS011;38960;51.074;17.004;2023-03-01T09:01:20;30.63;;;17.90;;
46653;SDS011;38960;51.074;17.004;2023-03-01T09:03:46;49.78;;;20.27;;
46653;SDS011;38960;51.074;17.004;2023-03-01T09:06:12;24.75;;;16.75;;
46653;SDS011;38960;51.074;17.004;2023-03-01T09:08:42;27.88;;;16.08;;
46653;SDS011;38960;51.074;17.004;2023-03-01T09:11:12;26.08;;;16.92;;
46653;SDS011;38960;51.074;17.004;2023-03-01T09:13:41;22.38;;;15.75;;
46653;SDS011;38960;51.074;17.004;2023-03-01T09:16:07;28.63;;;16.98;;
46653;SDS011;38960;51.074;17.004;2023-03-01T09:18:33;22.63;;;17.80;;
46653;SDS011;38960;51.074;17.004;2023-03-01T09:21:03;25.95;;;17.67;;
46653;SDS011;38960;51.074;17.004;2023-03-01T09:23:36;24.02;;;18.20;;
46653;SDS011;38960;51.074;17.004;2023-03-01T09:26:04;28.13;;;17.55;;
46653;SDS011;38960;51.074;17.004;2023-03-01T09:28:33;31.92;;;19.08;;
46653;SDS011;38960;51.074;17.004;2023-03-01T09:30:59;25.83;;;17.67;;
46653;SDS011;38960;51.074;17.004;2023-03-01T09:33:26;23.63;;;16.95;;
46653;SDS011;38960;51.074;17.004;2023-03-01T09:35:56;21.50;;;16.48;;
46653;SDS011;38960;51.074;17.004;2023-03-01T09:38:22;30.47;;;18.07;;
46653;SDS011;38960;51.074;17.004;2023-03-01T09:40:48;23.63;;;15.27;;
46653;SDS011;38960;51.074;17.004;2023-03-01T09:46:06;24.93;;;16.60;;
46653;SDS011;38960;51.074;17.004;2023-03-01T09:48:37;22.88;;;17.08;;
46653;SDS011;38960;51.074;17.004;2023-03-01T09:51:09;27.70;;;16.33;;
46653;SDS011;38960;51.074;17.004;2023-03-01T09:53:39;31.50;;;16.63;;
46653;SDS011;38960;51.074;17.004;2023-03-01T09:56:05;18.08;;;15.25;;
46653;SDS011;38960;51.074;17.004;2023-03-01T10:10:06;19.35;;;14.43;;
46653;SDS011;38960;51.074;17.004;2023-03-01T10:12:34;23.73;;;14.48;;
46653;SDS011;38960;51.074;17.004;2023-03-01T10:15:11;24.83;;;16.30;;
46653;SDS011;38960;51.074;17.004;2023-03-01T10:17:51;25.02;;;14.60;;
46653;SDS011;38960;51.074;17.004;2023-03-01T10:20:22;26.45;;;15.93;;
46653;SDS011;38960;51.074;17.004;2023-03-01T10:22:49;24.58;;;17.13;;
46653;SDS011;38960;51.074;17.004;2023-03-01T10:25:23;24.60;;;16.40;;
46653;SDS011;38960;51.074;17.004;2023-03-01T10:28:05;29.75;;;16.50;;
46653;SDS011;38960;51.074;17.004;2023-03-01T10:30:39;24.92;;;15.73;;
46653;SDS011;38960;51.074;17.004;2023-03-01T10:33:14;25.05;;;17.27;;
46653;SDS011;38960;51.074;17.004;2023-03-01T10:35:43;22.60;;;16.15;;
46653;SDS011;38960;51.074;17.004;2023-03-01T10:38:10;21.58;;;16.98;;
46653;SDS011;38960;51.074;17.004;2023-03-01T10:40:49;23.65;;;16.55;;
46653;SDS011;38960;51.074;17.004;2023-03-01T10:43:15;27.38;;;15.88;;
46653;SDS011;38960;51.074;17.004;2023-03-01T10:45:41;34.85;;;17.45;;
46653;SDS011;38960;51.074;17.004;2023-03-01T10:50:36;19.52;;;14.02;;
46653;SDS011;38960;51.074;17.004;2023-03-01T10:53:04;25.83;;;15.18;;
46653;SDS011;38960;51.074;17.004;2023-03-01T10:55:31;23.80;;;15.27;;
46653;SDS011;38960;51.074;17.004;2023-03-01T10:58:16;23.00;;;14.77;;
46653;SDS011;38960;51.074;17.004;2023-03-01T11:00:47;21.90;;;14.77;;
46653;SDS011;38960;51.074;17.004;2023-03-01T11:05:52;20.10;;;15.20;;
46653;SDS011;38960;51.074;17.004;2023-03-01T11:08:37;29.00;;;15.98;;
46653;SDS011;38960;51.074;17.004;2023-03-01T11:14:05;21.60;;;13.25;;
46653;SDS011;38960;51.074;17.004;2023-03-01T11:16:37;24.63;;;15.07;;
46653;SDS011;38960;51.074;17.004;2023-03-01T11:19:13;22.25;;;14.63;;
46653;SDS011;38960;51.074;17.004;2023-03-01T11:21:47;26.05;;;15.52;;
46653;SDS011;38960;51.074;17.004;2023-03-01T11:24:18;23.45;;;14.68;;
46653;SDS011;38960;51.074;17.004;2023-03-01T11:26:46;22.90;;;15.65;;
46653;SDS011;38960;51.074;17.004;2023-03-01T11:31:51;22.08;;;14.55;;
46653;SDS011;38960;51.074;17.004;2023-03-01T11:34:22;24.48;;;14.00;;
46653;SDS011;38960;51.074;17.004;2023-03-01T11:36:54;32.72;;;14.68;;
46653;SDS011;38960;51.074;17.004;2023-03-01T11:39:32;24.00;;;13.82;;
46653;SDS011;38960;51.074;17.004;2023-03-01T11:42:10;25.30;;;14.18;;
46653;SDS011;38960;51.074;17.004;2023-03-01T11:44:38;24.05;;;14.77;;
46653;SDS011;38960;51.074;17.004;2023-03-01T12:06:42;29.50;;;14.32;;
46653;SDS011;38960;51.074;17.004;2023-03-01T12:12:27;25.40;;;15.70;;
46653;SDS011;38960;51.074;17.004;2023-03-01T12:48:36;17.40;;;10.50;;
46653;SDS011;38960;51.074;17.004;2023-03-01T12:51:21;17.75;;;11.05;;
46653;SDS011;38960;51.074;17.004;2023-03-01T12:53:50;21.13;;;11.05;;
46653;SDS011;38960;51.074;17.004;2023-03-01T12:56:18;16.45;;;11.45;;
46653;SDS011;38960;51.074;17.004;2023-03-01T13:01:44;17.35;;;11.45;;
46653;SDS011;38960;51.074;17.004;2023-03-01T13:07:18;17.42;;;11.95;;
46653;SDS011;38960;51.074;17.004;2023-03-01T13:15:35;21.90;;;13.55;;
46653;SDS011;38960;51.074;17.004;2023-03-01T13:18:26;22.33;;;14.00;;
46653;SDS011;38960;51.074;17.004;2023-03-01T13:20:59;21.83;;;13.02;;
46653;SDS011;38960;51.074;17.004;2023-03-01T13:23:30;22.00;;;12.48;;
46653;SDS011;38960;51.074;17.004;2023-03-01T13:33:49;13.13;;;7.60;;
46653;SDS011;38960;51.074;17.004;2023-03-01T13:46:58;14.43;;;8.38;;
46653;SDS011;38960;51.074;17.004;2023-03-01T13:49:27;12.98;;;7.57;;
46653;SDS011;38960;51.074;17.004;2023-03-01T13:51:54;11.02;;;7.53;;
46653;SDS011;38960;51.074;17.004;2023-03-01T13:54:27;14.98;;;7.70;;
46653;SDS011;38960;51.074;17.004;2023-03-01T13:56:55;13.25;;;7.05;;
46653;SDS011;38960;51.074;17.004;2023-03-01T13:59:21;9.88;;;6.75;;
46653;SDS011;38960;51.074;17.004;2023-03-01T14:01:52;12.75;;;7.15;;
46653;SDS011;38960;51.074;17.004;2023-03-01T14:04:26;11.75;;;7.50;;
46653;SDS011;38960;51.074;17.004;2023-03-01T14:09:41;13.80;;;7.50;;
46653;SDS011;38960;51.074;17.004;2023-03-01T14:14:41;11.40;;;6.78;;
46653;SDS011;38960;51.074;17.004;2023-03-01T14:19:45;12.55;;;7.78;;
46653;SDS011;38960;51.074;17.004;2023-03-01T14:24:55;14.63;;;8.32;;
46653;SDS011;38960;51.074;17.004;2023-03-01T14:27:23;11.67;;;7.43;;
46653;SDS011;38960;51.074;17.004;2023-03-01T14:29:59;10.75;;;7.63;;
46653;SDS011;38960;51.074;17.004;2023-03-01T14:35:32;14.40;;;9.15;;
46653;SDS011;38960;51.074;17.004;2023-03-01T14:37:59;20.40;;;8.82;;
46653;SDS011;38960;51.074;17.004;2023-03-01T14:40:27;15.63;;;8.27;;
46653;SDS011;38960;51.074;17.004;2023-03-01T14:42:53;15.13;;;8.32;;
46653;SDS011;38960;51.074;17.004;2023-03-01T14:45:20;13.10;;;8.43;;
46653;SDS011;38960;51.074;17.004;2023-03-01T14:47:46;17.38;;;8.45;;
46653;SDS011;38960;51.074;17.004;2023-03-01T14:52:49;17.60;;;7.55;;
46653;SDS011;38960;51.074;17.004;2023-03-01T14:55:20;17.20;;;9.98;;
46653;SDS011;38960;51.074;17.004;2023-03-01T14:57:50;14.45;;;8.70;;
46653;SDS011;38960;51.074;17.004;2023-03-01T15:00:21;15.73;;;9.52;;
46653;SDS011;38960;51.074;17.004;2023-03-01T15:02:48;15.82;;;9.07;;
46653;SDS011;38960;51.074;17.004;2023-03-01T15:05:24;22.52;;;9.57;;
46653;SDS011;38960;51.074;17.004;2023-03-01T15:08:01;15.43;;;9.30;;
46653;SDS011;38960;51.074;17.004;2023-03-01T15:10:29;12.68;;;7.75;;
46653;SDS011;38960;51.074;17.004;2023-03-01T15:13:10;19.42;;;9.77;;
46653;SDS011;38960;51.074;17.004;2023-03-01T15:15:45;13.38;;;8.93;;
46653;SDS011;38960;51.074;17.004;2023-03-01T15:18:30;13.68;;;9.15;;
46653;SDS011;38960;51.074;17.004;2023-03-01T15:20:55;14.23;;;9.40;;
46653;SDS011;38960;51.074;17.004;2023-03-01T15:23:31;17.55;;;9.57;;
46653;SDS011;38960;51.074;17.004;2023-03-01T15:25:56;19.95;;;9.45;;
46653;SDS011;38960;51.074;17.004;2023-03-01T15:28:29;17.70;;;10.23;;
46653;SDS011;38960;51.074;17.004;2023-03-01T15:30:58;14.07;;;9.57;;
46653;SDS011;38960;51.074;17.004;2023-03-01T15:33:28;15.48;;;9.75;;
46653;SDS011;38960;51.074;17.004;2023-03-01T15:36:00;16.02;;;10.23;;
46653;SDS011;38960;51.074;17.004;2023-03-01T15:38:55;19.08;;;10.77;;
46653;SDS011;38960;51.074;17.004;2023-03-01T15:41:37;16.98;;;10.68;;
46653;SDS011;38960;51.074;17.004;2023-03-01T15:44:17;16.52;;;10.20;;
46653;SDS011;38960;51.074;17.004;2023-03-01T15:46:49;15.35;;;9.65;;
46653;SDS011;38960;51.074;17.004;2023-03-01T15:49:57;16.65;;;10.32;;
46653;SDS011;38960;51.074;17.004;2023-03-01T15:52:12;18.13;;;11.30;;
46653;SDS011;38960;51.074;17.004;2023-03-01T15:54:40;22.23;;;11.55;;
46653;SDS011;38960;51.074;17.004;2023-03-01T15:57:10;16.40;;;10.20;;
46653;SDS011;38960;51.074;17.004;2023-03-01T15:59:38;18.80;;;11.35;;
46653;SDS011;38960;51.074;17.004;2023-03-01T16:02:08;18.23;;;11.60;;
46653;SDS011;38960;51.074;17.004;2023-03-01T16:04:35;18.75;;;10.60;;
46653;SDS011;38960;51.074;17.004;2023-03-01T16:07:01;17.63;;;11.50;;
46653;SDS011;38960;51.074;17.004;2023-03-01T16:09:26;15.10;;;10.90;;
46653;SDS011;38960;51.074;17.004;2023-03-01T16:11:53;30.40;;;12.77;;
46653;SDS011;38960;51.074;17.004;2023-03-01T16:14:19;23.30;;;11.70;;
46653;SDS011;38960;51.074;17.004;2023-03-01T16:16:45;20.83;;;12.05;;
46653;SDS011;38960;51.074;17.004;2023-03-01T16:19:14;20.30;;;12.00;;
46653;SDS011;38960;51.074;17.004;2023-03-01T16:21:43;20.25;;;11.07;;
46653;SDS011;38960;51.074;17.004;2023-03-01T16:24:12;21.55;;;12.32;;
46653;SDS011;38960;51.074;17.004;2023-03-01T16:26:38;25.15;;;11.55;;
46653;SDS011;38960;51.074;17.004;2023-03-01T16:29:03;18.45;;;11.48;;
46653;SDS011;38960;51.074;17.004;2023-03-01T16:31:30;19.40;;;11.68;;
46653;SDS011;38960;51.074;17.004;2023-03-01T16:33:56;22.98;;;11.32;;
46653;SDS011;38960;51.074;17.004;2023-03-01T16:36:23;25.83;;;12.05;;